Flight Track Log - Related Links

Times and Time Zones

All times are in EDT time to prevent confusion due to time zone crossing. See the UAL1197 flight status page for this flight to view local times or setup timezone preferences in your user account.

Time Position Orientation Groundspeed Altitude Reporting Facility
EDT Latitude Longitude Course Direction KTS MPH feet Rate Location/Type
Tue 10:19:05 AM 33.9300 -118.4690 255° West 216 249 2,000  Level FlightAware ADS-B
Tue 10:19:35 AM 33.9200 -118.5040 251° West 239 275 3,100 2,727 Climbing FlightAware ADS-B
Tue 10:20:00 AM 33.9080 -118.5420 249° West 252 290 4,500 3,240 Climbing FlightAware ADS-B
Tue 10:20:25 AM 33.8930 -118.5680 235° Southwest 242 278 5,800 3,368 Climbing FlightAware ADS-B
Tue 10:20:57 AM 33.8470 -118.5680 180° South 246 283 7,700 3,286 Climbing FlightAware ADS-B
Tue 10:21:07 AM 33.8380 -118.5590 140° Southeast 252 290 8,100 2,357 Climbing FlightAware ADS-B
Tue 10:21:25 AM 33.8300 -118.5360 113° Southeast 261 300 8,800 2,250 Climbing FlightAware ADS-B
Tue 10:21:39 AM 33.8340 -118.5160 76° East 268 308 9,300 2,357 Climbing FlightAware ADS-B
Tue 10:21:53 AM 33.8440 -118.5000 53° Northeast 271 312 9,900 2,069 Climbing FlightAware ADS-B
Tue 10:22:37 AM 33.8930 -118.4620 33° Northeast 300 345 11,300 1,786 Climbing FlightAware ADS-B
Tue 10:23:17 AM 33.9390 -118.4200 37° Northeast 331 381 12,400 1,643 Climbing FlightAware ADS-B
Tue 10:24:01 AM 33.9800 -118.3510 54° Northeast 360 414 13,600 1,829 Climbing FlightAware ADS-B
Tue 10:24:39 AM 34.0170 -118.2860 56° Northeast 372 428 14,900 2,195 Climbing FlightAware ADS-B
Tue 10:25:23 AM 34.0600 -118.2100 56° Northeast 380 437 16,600 2,045 Climbing FlightAware ADS-B
Tue 10:26:07 AM 34.1080 -118.1340 53° Northeast 399 459 17,900 1,500 Climbing FlightAware ADS-B
Tue 10:26:47 AM 34.1570 -118.0640 50° Northeast 425 489 18,700 1,390 Climbing FlightAware ADS-B
Tue 10:27:29 AM 34.2000 -118.0010 50° Northeast 433 498 19,800 2,093 Climbing FlightAware ADS-B
Tue 10:28:13 AM 34.2660 -117.9040 51° Northeast 436 502 21,700 2,023 Climbing FlightAware ADS-B
Tue 10:28:55 AM 34.3210 -117.8250 50° Northeast 446 513 22,700 1,463 Climbing FlightAware ADS-B
Tue 10:29:35 AM 34.3750 -117.7470 50° Northeast 456 525 23,700 1,537 Climbing FlightAware ADS-B
Tue 10:30:17 AM 34.4320 -117.6630 51° Northeast 462 532 24,800 929 Climbing FlightAware ADS-B
Tue 10:30:59 AM 34.4880 -117.5800 51° Northeast 464 534 25,000 140 Climbing FlightAware ADS-B
Tue 10:31:43 AM 34.5490 -117.4910 50° Northeast 463 533 25,000 375 Level FlightAware ADS-B
Tue 10:32:19 AM 34.5980 -117.4190 50° Northeast 461 531 25,500 951 Climbing FlightAware ADS-B
Tue 10:33:05 AM 34.6620 -117.3240 51° Northeast 472 543 26,300 1,084 Climbing FlightAware ADS-B
Tue 10:33:42 AM 34.7120 -117.2490 51° Northeast 479 551 27,000 1,111 Climbing FlightAware ADS-B
Tue 10:34:26 AM 34.7730 -117.1590 50° Northeast 484 557 27,800 1,348 Climbing FlightAware ADS-B
Tue 10:35:11 AM 34.8390 -117.0610 51° Northeast 482 555 29,000 1,011 Climbing FlightAware ADS-B
Tue 10:36:01 AM 34.9010 -116.9700 50° Northeast 482 555 29,400 247 Climbing FlightAware ADS-B
Tue 10:36:48 AM 34.9580 -116.8870 50° Northeast 482 555 29,400  Level FlightAware ADS-B
Tue 10:37:25 AM 35.0030 -116.8210 50° Northeast 482 555 29,400 2,071 Level FlightAware ADS-B
Tue 10:38:12 AM 35.0940 -116.6790 52° Northeast 490 564 32,300 2,182 Climbing FlightAware ADS-B
Tue 10:38:53 AM 35.1430 -116.6050 51° Northeast 490 564 32,600 207 Climbing FlightAware ADS-B
Tue 10:39:39 AM 35.1990 -116.5200 51° Northeast 490 564 32,600 1,176 Level FlightAware ADS-B
Tue 10:40:35 AM 35.2850 -116.3880 51° Northeast 477 549 34,600 1,851 Climbing FlightAware ADS-B
Tue 10:41:13 AM 35.3470 -116.2950 51° Northeast 478 550 35,500 1,024 Climbing FlightAware ADS-B
Tue 10:41:57 AM 35.4090 -116.2000 51° Northeast 478 550 36,000 600 Climbing FlightAware ADS-B
Tue 10:42:53 AM 35.4860 -116.0820 51° Northeast 483 556 36,500 300 Climbing FlightAware ADS-B
Tue 10:43:37 AM 35.5380 -116.0030 51° Northeast 483 556 36,500  Level FlightAware ADS-B
Tue 10:44:21 AM 35.5910 -115.9230 51° Northeast 483 556 36,500 395 Level FlightAware ADS-B
Tue 10:44:53 AM 35.6520 -115.8280 52° Northeast 488 562 37,000 319 Climbing FlightAware ADS-B
Tue 10:45:55 AM 35.7420 -115.6890 51° Northeast 486 559 37,000  Level FlightAware ADS-B
Tue 10:46:35 AM 35.7980 -115.6010 52° Northeast 486 559 37,000  Level FlightAware ADS-B
Tue 10:47:19 AM 35.8580 -115.5070 52° Northeast 484 557 37,000  Level FlightAware ADS-B
Tue 10:47:57 AM 35.9110 -115.4240 52° Northeast 482 555 37,000  Level FlightAware ADS-B
Tue 10:48:43 AM 35.9730 -115.3270 52° Northeast 481 554 37,000  Level FlightAware ADS-B
Tue 10:49:28 AM 36.0360 -115.2290 51° Northeast 480 552 37,000  Level FlightAware ADS-B
Tue 10:50:10 AM 36.0860 -115.1340 57° Northeast 478 550 37,000  Level FlightAware ADS-B
Tue 10:50:49 AM 36.1180 -115.0370 68° East 476 548 37,000  Level FlightAware ADS-B
Tue 10:51:29 AM 36.1500 -114.9330 69° East 476 548 37,000  Level FlightAware ADS-B
Tue 10:52:13 AM 36.1840 -114.8220 69° East 478 550 37,000  Level FlightAware ADS-B
Tue 10:52:57 AM 36.2190 -114.7070 69° East 482 555 37,000  Level FlightAware ADS-B
Tue 10:53:31 AM 36.2450 -114.6200 70° East 482 555 37,000  Level FlightAware ADS-B
Tue 10:54:19 AM 36.2840 -114.4950 69° East 484 557 37,000  Level FlightAware ADS-B
Tue 10:54:59 AM 36.3150 -114.3930 69° East 484 557 37,000  Level FlightAware ADS-B
Tue 10:55:55 AM 36.3590 -114.2470 69° East 486 559 37,000  Level FlightAware ADS-B
Tue 10:56:40 AM 36.3940 -114.1300 70° East 485 558 37,000  Level FlightAware ADS-B
Tue 10:57:23 AM 36.4280 -114.0160 70° East 486 559 37,000  Level FlightAware ADS-B
Tue 10:58:01 AM 36.4570 -113.9170 70° East 484 557 37,000  Level FlightAware ADS-B
Tue 10:58:44 AM 36.4900 -113.8070 70° East 481 554 37,000  Level FlightAware ADS-B
Tue 10:59:27 AM 36.5230 -113.6950 70° East 481 554 37,000  Level FlightAware ADS-B
Tue 11:00:03 AM 36.5510 -113.6010 70° East 479 551 37,000  Level FlightAware ADS-B
Tue 11:00:49 AM 36.5860 -113.4800 70° East 479 551 37,000  Level FlightAware ADS-B
Tue 11:01:21 AM 36.6100 -113.4000 69° East 479 551 37,000  Level FlightAware ADS-B
Tue 11:02:03 AM 36.6420 -113.2900 70° East 480 552 37,000  Level FlightAware ADS-B
Tue 11:02:43 AM 36.6710 -113.1880 70° East 480 552 37,000  Level FlightAware ADS-B
Tue 11:03:23 AM 36.7010 -113.0860 70° East 481 554 37,000  Level FlightAware ADS-B
Tue 11:04:10 AM 36.7340 -112.9680 71° East 483 556 37,000  Level FlightAware ADS-B
Tue 11:04:51 AM 36.7670 -112.8540 70° East 485 558 37,000  Level FlightAware ADS-B
Tue 11:05:18 AM 36.7860 -112.7890 70° East 486 559 37,000  Level FlightAware ADS-B
Tue 11:06:01 AM 36.8190 -112.6710 71° East 488 562 37,000  Level FlightAware ADS-B
Tue 11:06:37 AM 36.8460 -112.5760 70° East 489 563 37,000  Level FlightAware ADS-B
Tue 11:07:22 AM 36.8820 -112.4510 70° East 490 564 37,000  Level FlightAware ADS-B
Tue 11:07:59 AM 36.9030 -112.3750 71° East 491 565 37,000  Level FlightAware ADS-B
Tue 11:08:44 AM 36.9430 -112.2330 71° East 489 563 37,000  Level FlightAware ADS-B
Tue 11:09:29 AM 36.9760 -112.1140 71° East 487 560 37,000  Level FlightAware ADS-B
Tue 11:10:08 AM 37.0050 -112.0090 71° East 487 560 37,000  Level FlightAware ADS-B
Tue 11:10:58 AM 37.0420 -111.8750 71° East 487 560 37,000  Level FlightAware ADS-B
Tue 11:11:43 AM 37.0610 -111.8040 71° East 487 560 37,000  Level FlightAware ADS-B
Tue 11:12:22 AM 37.1030 -111.6530 71° East 487 560 37,000  Level FlightAware ADS-B
Tue 11:13:09 AM 37.1370 -111.5300 71° East 486 559 37,000  Level FlightAware ADS-B
Tue 11:13:48 AM 37.1650 -111.4230 72° East 486 559 37,000  Level FlightAware ADS-B
Tue 11:14:26 AM 37.1930 -111.3230 71° East 485 558 37,000  Level FlightAware ADS-B
Tue 11:15:57 AM 37.2510 -111.1060 71° East 485 558 37,000  Level FlightAware ADS-B
Tue 11:16:21 AM 37.2660 -111.0520 71° East 485 558 37,000  Level FlightAware ADS-B
Tue 11:16:59 AM 37.2900 -110.9660 71° East 485 558 37,000  Level FlightAware ADS-B
Tue 11:17:47 AM 37.3200 -110.8570 71° East 485 558 37,000  Level FlightAware ADS-B
Tue 11:18:23 AM 37.3420 -110.7750 71° East 485 558 37,000  Level FlightAware ADS-B
Tue 11:19:11 AM 37.3720 -110.6660 71° East 485 558 37,000  Level FlightAware ADS-B
Tue 11:19:48 AM 37.3950 -110.5820 71° East 485 558 37,000  Level FlightAware ADS-B
Tue 11:20:52 AM 37.4350 -110.4370 71° East 485 558 37,000  Level FlightAware ADS-B
Tue 11:21:29 AM 37.4580 -110.3530 71° East 485 558 37,000  Level FlightAware ADS-B
Tue 11:22:14 AM 37.5190 -110.0840 74° East 483 556 37,000  Level FlightAware ADS-B
Tue 11:22:53 AM 37.5470 -109.9770 72° East 482 555 37,000  Level FlightAware ADS-B
Tue 11:23:39 AM 37.5780 -109.8520 73° East 482 555 37,000  Level FlightAware ADS-B
Tue 11:24:23 AM 37.6090 -109.7310 72° East 485 558 37,000  Level FlightAware ADS-B
Tue 11:25:04 AM 37.6340 -109.6310 72° East 486 559 37,000  Level FlightAware ADS-B
Tue 11:25:44 AM 37.6530 -109.5580 72° East 486 559 37,000  Level FlightAware ADS-B
Tue 11:26:25 AM 37.6910 -109.4060 72° East 488 562 37,000  Level FlightAware ADS-B
Tue 11:27:06 AM 37.7180 -109.2990 72° East 488 562 37,000  Level FlightAware ADS-B
Tue 11:27:48 AM 37.7450 -109.1880 73° East 488 562 37,000  Level FlightAware ADS-B
Tue 11:28:30 AM 37.7760 -109.0630 73° East 487 560 37,000  Level FlightAware ADS-B
Tue 11:29:07 AM 37.8010 -108.9630 72° East 487 560 37,000  Level FlightAware ADS-B
Tue 11:29:55 AM 37.8420 -108.8360 68° East 489 563 37,000  Level FlightAware ADS-B
Tue 11:30:54 AM 37.8920 -108.6940 66° East 491 565 37,000  Level FlightAware ADS-B
Tue 11:31:33 AM 37.9260 -108.5940 67° East 492 566 37,000  Level FlightAware ADS-B
Tue 11:32:30 AM 37.9800 -108.4410 66° East 492 566 37,000  Level FlightAware ADS-B
Tue 11:33:07 AM 38.0190 -108.3400 64° Northeast 490 564 37,000  Level FlightAware ADS-B
Tue 11:34:18 AM 38.1230 -108.1870 49° Northeast 488 562 37,000  Level FlightAware ADS-B
Tue 11:35:01 AM 38.1860 -108.0980 48° Northeast 488 562 37,000  Level FlightAware ADS-B
Tue 11:35:48 AM 38.2590 -107.9930 48° Northeast 487 560 37,000  Level FlightAware ADS-B
Tue 11:36:23 AM 38.3140 -107.9140 48° Northeast 488 562 37,000  Level FlightAware ADS-B
Tue 11:37:10 AM 38.3780 -107.8230 48° Northeast 487 560 37,000  Level FlightAware ADS-B
Tue 11:37:53 AM 38.4410 -107.7190 52° Northeast 492 566 37,000  Level FlightAware ADS-B
Tue 11:38:33 AM 38.4800 -107.6140 65° Northeast 492 566 37,000  Level FlightAware ADS-B
Tue 11:39:29 AM 38.5360 -107.4620 65° Northeast 493 567 37,000  Level FlightAware ADS-B
Tue 11:39:43 AM 38.5502 -107.4230 65° Northeast 494 568 37,000  Level FlightAware ADS-B
Tue 11:40:14 AM 38.5798 -107.3420 65° Northeast 494 568 37,000  Level FlightAware ADS-B
Tue 11:40:49 AM 38.6100 -107.2560 66° East 495 570 37,000  Level FlightAware ADS-B
Tue 11:41:34 AM 38.6564 -107.1290 65° Northeast 495 570 37,000  Level FlightAware ADS-B
Tue 11:42:05 AM 38.6857 -107.0470 65° Northeast 497 572 37,000  Level FlightAware ADS-B
Tue 11:42:35 AM 38.7146 -106.9670 65° Northeast 497 572 37,000  Level FlightAware ADS-B
Tue 11:43:05 AM 38.7433 -106.8870 65° Northeast 499 574 37,000  Level FlightAware ADS-B
Tue 11:43:35 AM 38.7725 -106.8050 65° Northeast 499 574 37,000  Level FlightAware ADS-B
Tue 11:44:21 AM 38.8140 -106.6890 65° Northeast 499 574 37,000  Level FlightAware ADS-B
Tue 11:44:45 AM 38.8387 -106.6190 66° East 499 574 37,000  Level FlightAware ADS-B
Tue 11:45:16 AM 38.8683 -106.5350 66° East 500 575 37,000  Level FlightAware ADS-B
Tue 11:45:51 AM 38.9017 -106.4410 65° Northeast 498 573 37,000  Level FlightAware ADS-B
Tue 11:46:22 AM 38.9307 -106.3590 66° East 498 573 37,000  Level FlightAware ADS-B
Tue 11:46:52 AM 38.9595 -106.2770 66° East 499 574 37,000  Level FlightAware ADS-B
Tue 11:47:23 AM 38.9885 -106.1940 66° East 499 574 37,000  Level FlightAware ADS-B
Tue 11:48:25 AM 39.0380 -106.0540 65° Northeast 498 573 37,000  Level FlightAware ADS-B
Tue 11:48:38 AM 39.0593 -105.9910 66° East 498 573 37,000  Level FlightAware ADS-B
Tue 11:49:09 AM 39.0883 -105.9080 66° East 498 573 37,000  Level FlightAware ADS-B
Tue 11:49:40 AM 39.1172 -105.8240 66° East 497 572 37,000  Level FlightAware ADS-B
Tue 11:50:17 AM 39.1519 -105.7230 66° East 497 572 37,000  Level FlightAware ADS-B
Tue 11:50:47 AM 39.1800 -105.6420 66° East 501 577 37,000  Level FlightAware ADS-B
Tue 11:51:22 AM 39.2122 -105.5480 66° East 501 577 37,000  Level FlightAware ADS-B
Tue 11:51:52 AM 39.2370 -105.4750 66° East 500 575 37,000  Level FlightAware ADS-B
Tue 11:52:00 AM 39.2482 -105.4420 66° East 499 574 37,000  Level FlightAware ADS-B
Tue 11:52:32 AM 39.2774 -105.3560 66° East 500 575 37,000  Level FlightAware ADS-B
Tue 11:53:04 AM 39.3070 -105.2690 66° East 498 573 37,000  Level FlightAware ADS-B
Tue 11:53:35 AM 39.3352 -105.1850 67° East 499 574 37,000  Level FlightAware ADS-B
Tue 11:54:05 AM 39.3632 -105.1020 66° East 498 573 37,000  Level FlightAware ADS-B
Tue 11:54:37 AM 39.3922 -105.0170 66° East 497 572 37,000  Level FlightAware ADS-B
Tue 11:55:08 AM 39.4206 -104.9320 67° East 498 573 37,000  Level FlightAware ADS-B
Tue 11:55:41 AM 39.4511 -104.8410 67° East 497 572 37,000  Level FlightAware ADS-B
Tue 11:56:12 AM 39.4786 -104.7580 67° East 498 573 37,000  Level FlightAware ADS-B
Tue 11:56:42 AM 39.5065 -104.6740 67° East 497 572 37,000  Level FlightAware ADS-B
Tue 11:57:13 AM 39.5340 -104.5910 67° East 497 572 37,000  Level FlightAware ADS-B
Tue 11:57:44 AM 39.5624 -104.5050 67° East 497 572 37,000  Level FlightAware ADS-B
Tue 11:58:16 AM 39.5909 -104.4180 67° East 498 573 37,000  Level FlightAware ADS-B
Tue 11:58:49 AM 39.6204 -104.3280 67° East 499 574 37,000  Level FlightAware ADS-B
Tue 11:59:20 AM 39.6483 -104.2430 67° East 501 577 37,000  Level FlightAware ADS-B
Tue 11:59:51 AM 39.6770 -104.1560 67° East 501 577 37,000  Level FlightAware ADS-B
Tue 12:00:22 PM 39.7046 -104.0710 67° East 502 578 37,000  Level FlightAware ADS-B
Tue 12:00:53 PM 39.7323 -103.9850 67° East 503 579 37,000  Level FlightAware ADS-B
Tue 12:01:23 PM 39.7595 -103.9010 67° East 504 580 37,000  Level FlightAware ADS-B
Tue 12:01:53 PM 39.7866 -103.8170 67° East 506 582 37,000  Level FlightAware ADS-B
Tue 12:02:23 PM 39.8136 -103.7320 68° East 507 583 37,000  Level FlightAware ADS-B
Tue 12:02:53 PM 39.8409 -103.6480 67° East 507 583 37,000  Level FlightAware ADS-B
Tue 12:03:24 PM 39.8681 -103.5620 68° East 507 583 37,000  Level FlightAware ADS-B
Tue 12:03:54 PM 39.8954 -103.4770 67° East 507 583 37,000  Level FlightAware ADS-B
Tue 12:04:29 PM 39.9265 -103.3790 67° East 507 583 37,000  Level FlightAware ADS-B
Tue 12:04:59 PM 39.9532 -103.2940 68° East 506 582 37,000  Level FlightAware ADS-B
Tue 12:05:29 PM 39.9799 -103.2090 68° East 507 583 37,000  Level FlightAware ADS-B
Tue 12:06:01 PM 40.0083 -103.1190 68° East 505 581 37,000  Level FlightAware ADS-B
Tue 12:06:32 PM 40.0351 -103.0330 68° East 505 581 37,000  Level FlightAware ADS-B
Tue 12:07:02 PM 40.0617 -102.9480 68° East 505 581 37,000  Level FlightAware ADS-B
Tue 12:07:32 PM 40.0883 -102.8630 68° East 505 581 37,000  Level FlightAware ADS-B
Tue 12:08:02 PM 40.1146 -102.7780 68° East 505 581 37,000  Level FlightAware ADS-B
Tue 12:08:32 PM 40.1410 -102.6930 68° East 506 582 37,000  Level FlightAware ADS-B
Tue 12:09:03 PM 40.1676 -102.6070 68° East 507 583 37,000  Level FlightAware ADS-B
Tue 12:09:35 PM 40.1956 -102.5150 68° East 508 585 37,000  Level FlightAware ADS-B
Tue 12:10:05 PM 40.2216 -102.4300 68° East 509 586 37,000  Level FlightAware ADS-B
Tue 12:10:35 PM 40.2480 -102.3440 68° East 509 586 37,000  Level FlightAware ADS-B
Tue 12:11:08 PM 40.2762 -102.2510 68° East 510 587 37,000  Level FlightAware ADS-B
Tue 12:11:38 PM 40.3024 -102.1650 68° East 511 588 37,000  Level FlightAware ADS-B
Tue 12:12:08 PM 40.3291 -102.0770 68° East 512 589 37,000  Level FlightAware ADS-B
Tue 12:12:40 PM 40.3567 -101.9850 68° East 513 590 37,000  Level FlightAware ADS-B
Tue 12:13:11 PM 40.3830 -101.8980 68° East 513 590 37,000  Level FlightAware ADS-B
Tue 12:13:41 PM 40.4099 -101.8080 69° East 513 590 37,000  Level FlightAware ADS-B
Tue 12:14:12 PM 40.4362 -101.7200 69° East 512 589 37,000  Level FlightAware ADS-B
Tue 12:14:42 PM 40.4621 -101.6330 69° East 512 589 37,000  Level FlightAware ADS-B
Tue 12:15:14 PM 40.4893 -101.5410 69° East 512 589 37,000  Level FlightAware ADS-B
Tue 12:15:44 PM 40.5151 -101.4530 69° East 510 587 37,000  Level FlightAware ADS-B
Tue 12:16:15 PM 40.5408 -101.3660 69° East 509 586 37,000  Level FlightAware ADS-B
Tue 12:16:47 PM 40.5674 -101.2750 69° East 509 586 37,000  Level FlightAware ADS-B
Tue 12:17:20 PM 40.5958 -101.1780 69° East 509 586 37,000  Level FlightAware ADS-B
Tue 12:17:52 PM 40.6224 -101.0860 69° East 509 586 37,000  Level FlightAware ADS-B
Tue 12:19:00 PM 40.6694 -100.9192 69° East 507 583 37,000  Level Denver Center
Tue 12:20:02 PM 40.7231 -100.7261 70° East 510 587 37,000  Level Denver Center
Tue 12:21:04 PM 40.7806 -100.5361 68° East 511 588 37,000  Level Denver Center
Tue 12:22:06 PM 40.8269 -100.3706 70° East 507 583 37,000  Level Denver Center
Tue 12:23:08 PM 40.8819 -100.1758 69° East 508 585 37,000  Level Denver Center
Tue 12:24:10 PM 40.9289 -100.0086 70° East 509 586 37,000  Level Denver Center
Tue 12:25:12 PM 40.9842 -99.8106 70° East 510 587 37,000  Level Denver Center
Tue 12:26:14 PM 41.0333 -99.6350 70° East 510 587 37,000  Level Denver Center
Tue 12:26:46 PM 41.0531 -99.5653 69° East 510 587 37,000  Level Minneapolis Center
Tue 12:27:48 PM 41.1008 -99.3878 70° East 511 588 37,000  Level Minneapolis Center
Tue 12:33:16 PM 41.3650 -98.3880 70° East 506 582 37,000  Level FlightAware ADS-B
Tue 12:33:54 PM 41.3850 -98.2910 75° East 506 582 37,000  Level FlightAware ADS-B
Tue 12:34:58 PM 41.3850 -98.0720 90° East 503 579 37,000  Level FlightAware ADS-B
Tue 12:35:46 PM 41.3890 -97.9380 88° East 502 578 37,000  Level FlightAware ADS-B
Tue 12:36:48 PM 41.3950 -97.7310 88° East 500 575 37,000  Level FlightAware ADS-B
Tue 12:37:26 PM 41.3980 -97.6140 88° East 500 575 37,000  Level FlightAware ADS-B
Tue 12:38:12 PM 41.4020 -97.4740 88° East 500 575 37,000  Level FlightAware ADS-B
Tue 12:38:53 PM 41.4050 -97.3490 88° East 500 575 37,000  Level FlightAware ADS-B
Tue 12:39:38 PM 41.4090 -97.2080 88° East 500 575 37,000  Level FlightAware ADS-B
Tue 12:40:12 PM 41.4110 -97.1070 88° East 501 577 37,000  Level FlightAware ADS-B
Tue 12:40:58 PM 41.4140 -96.9650 88° East 504 580 37,000  Level FlightAware ADS-B
Tue 12:41:44 PM 41.4170 -96.8200 88° East 504 580 37,000  Level FlightAware ADS-B
Tue 12:42:26 PM 41.4200 -96.6880 88° East 506 582 37,000  Level FlightAware ADS-B
Tue 12:43:06 PM 41.4220 -96.5690 89° East 507 583 37,000  Level FlightAware ADS-B
Tue 12:43:48 PM 41.4240 -96.4340 89° East 507 583 37,000  Level FlightAware ADS-B
Tue 12:44:30 PM 41.4260 -96.3050 89° East 508 585 37,000  Level FlightAware ADS-B
Tue 12:45:14 PM 41.4280 -96.1660 89° East 505 581 37,000  Level FlightAware ADS-B
Tue 12:45:56 PM 41.4300 -96.0340 89° East 504 580 37,000  Level FlightAware ADS-B
Tue 12:46:30 PM 41.4310 -95.9370 89° East 503 579 37,000  Level FlightAware ADS-B
Tue 12:47:20 PM 41.4330 -95.8160 89° East 503 579 37,000  Level FlightAware ADS-B
Tue 12:47:58 PM 41.4350 -95.6600 89° East 503 579 37,000  Level FlightAware ADS-B
Tue 12:48:58 PM 41.4360 -95.4750 90° East 501 577 37,000 184 Level FlightAware ADS-B
Tue 12:49:36 PM 41.4370 -95.3590 89° East 502 578 37,300 457 Climbing FlightAware ADS-B
Tue 12:50:30 PM 41.4380 -95.1920 89° East 508 585 37,700 500 Climbing FlightAware ADS-B
Tue 12:51:24 PM 41.4400 -95.0370 89° East 505 581 38,200 605 Climbing FlightAware ADS-B
Tue 12:52:29 PM 41.4410 -94.8300 90° East 506 582 38,900 432 Climbing FlightAware ADS-B
Tue 12:53:15 PM 41.4410 -94.6930 90° East 508 585 39,000 64 Climbing FlightAware ADS-B
Tue 12:54:03 PM 41.4430 -94.5650 89° East 508 585 39,000  Level FlightAware ADS-B
Tue 12:54:40 PM 41.4410 -94.4100 91° East 512 589 39,000  Level FlightAware ADS-B
Tue 12:55:16 PM 41.4400 -94.2980 91° East 512 589 39,000  Level FlightAware ADS-B
Tue 12:55:56 PM 41.4400 -94.1690 90° East 512 589 39,000  Level FlightAware ADS-B
Tue 12:56:41 PM 41.4400 -94.0750 90° East 510 587 39,000  Level FlightAware ADS-B
Tue 12:57:22 PM 41.4390 -93.8980 90° East 509 586 39,000  Level FlightAware ADS-B
Tue 12:58:04 PM 41.4380 -93.7690 91° East 509 586 39,000  Level FlightAware ADS-B
Tue 12:58:58 PM 41.4420 -93.6060 88° East 509 586 39,000  Level FlightAware ADS-B
Tue 12:59:35 PM 41.4530 -93.4880 83° East 510 587 39,000  Level FlightAware ADS-B
Tue 01:00:37 PM 41.4720 -93.2970 82° East 509 586 39,000  Level FlightAware ADS-B
Tue 01:01:18 PM 41.4840 -93.1660 83° East 510 587 39,000  Level FlightAware ADS-B
Tue 01:02:02 PM 41.4970 -93.0290 83° East 508 585 39,000  Level FlightAware ADS-B
Tue 01:02:42 PM 41.5080 -92.9040 83° East 508 585 39,000  Level FlightAware ADS-B
Tue 01:03:24 PM 41.5200 -92.7740 83° East 506 582 39,000  Level FlightAware ADS-B
Tue 01:04:08 PM 41.5320 -92.6380 83° East 503 579 39,000  Level FlightAware ADS-B
Tue 01:04:42 PM 41.5420 -92.5320 83° East 502 578 39,000  Level FlightAware ADS-B
Tue 01:05:29 PM 41.5530 -92.3980 84° East 502 578 39,000  Level FlightAware ADS-B
Tue 01:06:14 PM 41.5660 -92.2530 83° East 501 577 39,000  Level FlightAware ADS-B
Tue 01:06:56 PM 41.5770 -92.1280 83° East 503 579 39,000  Level FlightAware ADS-B
Tue 01:07:36 PM 41.5870 -92.0050 84° East 506 582 39,000  Level FlightAware ADS-B
Tue 01:08:16 PM 41.5980 -91.8760 83° East 505 581 39,000  Level FlightAware ADS-B
Tue 01:08:56 PM 41.6080 -91.7520 84° East 505 581 39,000  Level FlightAware ADS-B
Tue 01:09:38 PM 41.6180 -91.6240 84° East 506 582 39,000  Level FlightAware ADS-B
Tue 01:10:18 PM 41.6280 -91.4980 84° East 508 585 39,000  Level FlightAware ADS-B
Tue 01:11:00 PM 41.6380 -91.3690 84° East 508 585 39,000  Level FlightAware ADS-B
Tue 01:11:50 PM 41.6500 -91.2130 84° East 506 582 39,000  Level FlightAware ADS-B
Tue 01:12:30 PM 41.6600 -91.0890 84° East 505 581 39,000  Level FlightAware ADS-B
Tue 01:13:12 PM 41.6700 -90.9580 84° East 505 581 39,000  Level FlightAware ADS-B
Tue 01:13:57 PM 41.6800 -90.8210 84° East 505 581 39,000  Level FlightAware ADS-B
Tue 01:14:38 PM 41.6890 -90.6930 85° East 505 581 39,000  Level FlightAware ADS-B
Tue 01:15:18 PM 41.6980 -90.5680 84° East 504 580 39,000  Level FlightAware ADS-B
Tue 01:16:00 PM 41.7070 -90.4410 85° East 504 580 39,000  Level FlightAware ADS-B
Tue 01:16:42 PM 41.7160 -90.3070 85° East 504 580 39,000  Level FlightAware ADS-B
Tue 01:17:24 PM 41.7250 -90.1730 85° East 503 579 39,000  Level FlightAware ADS-B
Tue 01:18:01 PM 41.7320 -90.0670 85° East 502 578 39,000  Level FlightAware ADS-B
Tue 01:18:50 PM 41.7420 -89.9110 85° East 503 579 39,000  Level FlightAware ADS-B
Tue 01:19:30 PM 41.7510 -89.7860 84° East 504 580 39,000  Level FlightAware ADS-B
Tue 01:20:27 PM 41.7620 -89.6070 85° East 506 582 39,000  Level FlightAware ADS-B
Tue 01:21:07 PM 41.7700 -89.4820 85° East 507 583 39,000  Level FlightAware ADS-B
Tue 01:21:52 PM 41.7780 -89.3430 86° East 509 586 39,000  Level FlightAware ADS-B
Tue 01:22:33 PM 41.7860 -89.2120 85° East 511 588 39,000  Level FlightAware ADS-B
Tue 01:23:16 PM 41.7940 -89.0790 85° East 512 589 39,000  Level FlightAware ADS-B
Tue 01:23:58 PM 41.8010 -88.9470 86° East 512 589 39,000  Level FlightAware ADS-B
Tue 01:24:39 PM 41.8080 -88.8140 86° East 513 590 39,000  Level FlightAware ADS-B
Tue 01:25:21 PM 41.8160 -88.6830 85° East 513 590 39,000  Level FlightAware ADS-B
Tue 01:26:06 PM 41.8230 -88.5420 86° East 514 592 39,000  Level FlightAware ADS-B
Tue 01:26:47 PM 41.8300 -88.4100 86° East 515 593 39,000  Level FlightAware ADS-B
Tue 01:27:27 PM 41.8370 -88.2820 86° East 515 593 39,000  Level FlightAware ADS-B
Tue 01:28:08 PM 41.8430 -88.1540 86° East 516 594 39,000  Level FlightAware ADS-B
Tue 01:28:54 PM 41.8500 -88.0060 86° East 517 595 39,000  Level FlightAware ADS-B
Tue 01:29:36 PM 41.8570 -87.8710 86° East 518 596 39,000  Level FlightAware ADS-B
Tue 01:30:45 PM 41.8670 -87.6540 86° East 517 595 39,000  Level FlightAware ADS-B
Tue 01:31:27 PM 41.8730 -87.5200 87° East 517 595 39,000  Level FlightAware ADS-B
Tue 01:32:09 PM 41.8790 -87.3880 86° East 517 595 39,000  Level FlightAware ADS-B
Tue 01:32:45 PM 41.8840 -87.2720 87° East 518 596 39,000  Level FlightAware ADS-B
Tue 01:33:30 PM 41.8900 -87.1220 87° East 519 597 39,000  Level FlightAware ADS-B
Tue 01:34:15 PM 41.8950 -86.9830 87° East 518 596 39,000  Level FlightAware ADS-B
Tue 01:34:57 PM 41.9000 -86.8490 87° East 519 597 39,000  Level FlightAware ADS-B
Tue 01:35:37 PM 41.9050 -86.7190 87° East 518 596 39,000  Level FlightAware ADS-B
Tue 01:36:17 PM 41.9090 -86.5940 87° East 518 596 39,000  Level FlightAware ADS-B
Tue 01:37:01 PM 41.9150 -86.4500 87° East 517 595 39,000  Level FlightAware ADS-B
Tue 01:37:43 PM 41.9190 -86.3220 88° East 516 594 39,000  Level FlightAware ADS-B
Tue 01:38:27 PM 41.9240 -86.1720 87° East 515 593 39,000  Level FlightAware ADS-B
Tue 01:39:06 PM 41.9280 -86.0480 87° East 514 592 39,000  Level FlightAware ADS-B
Tue 01:39:49 PM 41.9320 -85.9110 88° East 514 592 39,000  Level FlightAware ADS-B
Tue 01:40:47 PM 41.9370 -85.7700 87° East 512 589 39,000  Level FlightAware ADS-B
Tue 01:41:23 PM 41.9410 -85.6130 88° East 511 588 39,000  Level FlightAware ADS-B
Tue 01:42:11 PM 41.9450 -85.4610 88° East 508 585 39,000  Level FlightAware ADS-B
Tue 01:42:49 PM 41.9480 -85.3460 88° East 504 580 39,000  Level FlightAware ADS-B
Tue 01:44:13 PM 41.9510 -85.0850 89° East 499 574 39,000  Level FlightAware ADS-B
Tue 01:45:13 PM 41.9500 -84.9020 90° East 496 571 39,000  Level FlightAware ADS-B
Tue 01:45:50 PM 41.9490 -84.7830 91° East 493 567 39,000  Level FlightAware ADS-B
Tue 01:46:47 PM 41.9480 -84.6130 90° East 490 564 39,000  Level FlightAware ADS-B
Tue 01:47:41 PM 41.9470 -84.4530 90° East 489 563 39,000  Level FlightAware ADS-B
Tue 01:48:36 PM 41.9450 -84.2780 91° East 493 567 39,000  Level FlightAware ADS-B
Tue 01:49:31 PM 41.9440 -84.1150 90° East 493 567 39,000  Level FlightAware ADS-B
Tue 01:50:31 PM 41.9420 -83.9410 91° East 492 566 39,000  Level FlightAware ADS-B
Tue 01:51:12 PM 41.9410 -83.8600 91° East 492 566 39,000  Level FlightAware ADS-B
Tue 01:51:50 PM 41.9400 -83.8010 91° East 39,000  Level FlightAware ADS-B
Tue 01:52:20 PM 41.9370 -83.6050 91° East 492 566 39,000  Level FlightAware ADS-B
Tue 01:53:03 PM 41.9340 -83.4660 92° East 492 566 39,000  Level FlightAware ADS-B
Tue 01:53:43 PM 41.9340 -83.3500 90° East 493 567 39,000  Level FlightAware ADS-B
Tue 01:54:26 PM 41.9340 -83.2120 90° East 492 566 39,000  Level FlightAware ADS-B
Tue 01:55:09 PM 41.9330 -83.1670 92° East 493 567 39,000  Level FlightAware ADS-B
Tue 01:55:54 PM 41.9320 -82.9640 90° East 494 568 39,000  Level FlightAware ADS-B
Tue 01:56:32 PM 41.9310 -82.8500 91° East 495 570 39,000  Level FlightAware ADS-B
Tue 01:57:17 PM 41.9300 -82.7080 90° East 497 572 39,000  Level FlightAware ADS-B
Tue 01:57:59 PM 41.9290 -82.6020 91° East 498 573 39,000  Level FlightAware ADS-B
Tue 01:58:37 PM 41.9280 -82.5400 91° East 498 573 39,000  Level FlightAware ADS-B
Tue 01:59:34 PM 41.9250 -82.2860 91° East 498 573 39,000  Level FlightAware ADS-B
Tue 02:00:13 PM 41.9230 -82.1770 91° East 497 572 39,000  Level FlightAware ADS-B
Tue 02:00:54 PM 41.9210 -82.0400 91° East 491 565 39,000  Level FlightAware ADS-B
Tue 02:01:39 PM 41.9190 -81.9020 91° East 487 560 39,000  Level FlightAware ADS-B
Tue 02:02:23 PM 41.9140 -81.7900 93° East 488 562 39,000  Level FlightAware ADS-B
Tue 02:03:04 PM 41.9000 -81.6310 97° East 486 559 39,000  Level FlightAware ADS-B
Tue 02:04:04 PM 41.8840 -81.4540 97° East 485 558 39,000  Level FlightAware ADS-B
Tue 02:04:46 PM 41.8730 -81.3290 97° East 485 558 39,000  Level FlightAware ADS-B
Tue 02:05:47 PM 41.8570 -81.1630 97° East 484 557 39,000  Level FlightAware ADS-B
Tue 02:06:32 PM 41.8440 -81.0240 97° East 485 558 39,000  Level FlightAware ADS-B
Tue 02:07:17 PM 41.8310 -80.8910 97° East 488 562 39,000  Level FlightAware ADS-B
Tue 02:07:57 PM 41.8200 -80.7700 97° East 490 564 39,000  Level FlightAware ADS-B
Tue 02:08:40 PM 41.8090 -80.6640 98° East 490 564 39,000  Level FlightAware ADS-B
Tue 02:09:22 PM 41.7950 -80.5160 97° East 491 565 39,000  Level FlightAware ADS-B
Tue 02:10:07 PM 41.7800 -80.3740 98° East 490 564 39,000  Level FlightAware ADS-B
Tue 02:10:47 PM 41.7690 -80.2560 97° East 489 563 39,000  Level FlightAware ADS-B
Tue 02:11:32 PM 41.7630 -80.2010 98° East 489 563 39,000  Level FlightAware ADS-B
Tue 02:12:22 PM 41.7400 -79.9720 98° East 486 559 39,000  Level FlightAware ADS-B
Tue 02:13:03 PM 41.7270 -79.8550 98° East 485 558 39,000  Level FlightAware ADS-B
Tue 02:13:43 PM 41.7130 -79.7210 98° East 484 557 39,000  Level FlightAware ADS-B
Tue 02:14:26 PM 41.7000 -79.5970 98° East 482 555 39,000  Level FlightAware ADS-B
Tue 02:15:04 PM 41.6880 -79.4890 98° East 483 556 39,000  Level FlightAware ADS-B
Tue 02:15:47 PM 41.6750 -79.3680 98° East 478 550 39,000  Level FlightAware ADS-B
Tue 02:16:28 PM 41.6620 -79.2490 98° East 478 550 39,000  Level FlightAware ADS-B
Tue 02:17:12 PM 41.6490 -79.1330 98° East 477 549 39,000 -337 Level FlightAware ADS-B
Tue 02:17:57 PM 41.6330 -78.9880 98° East 482 555 38,500 -776 Descending FlightAware ADS-B
Tue 02:18:37 PM 41.6190 -78.8690 99° East 485 558 37,900 -975 Descending FlightAware ADS-B
Tue 02:19:17 PM 41.6060 -78.7520 98° East 488 562 37,200 -988 Descending FlightAware ADS-B
Tue 02:20:02 PM 41.5900 -78.6180 99° East 492 566 36,500 -918 Descending FlightAware ADS-B
Tue 02:20:42 PM 41.5760 -78.4960 99° East 497 572 35,900 -918 Descending FlightAware ADS-B
Tue 02:21:27 PM 41.5590 -78.3570 99° East 504 580 35,200 -918 Descending FlightAware ADS-B
Tue 02:22:07 PM 41.5450 -78.2370 99° East 506 582 34,600 -975 Descending FlightAware ADS-B
Tue 02:22:47 PM 41.5300 -78.1110 99° East 505 581 33,900 -1,129 Descending FlightAware ADS-B
Tue 02:23:32 PM 41.5140 -77.9780 99° East 501 577 33,000 -635 Descending FlightAware ADS-B
Tue 02:24:12 PM 41.4980 -77.8640 101° East 499 574 33,000  Level FlightAware ADS-B
Tue 02:24:57 PM 41.4780 -77.7210 101° East 505 581 33,000  Level FlightAware ADS-B
Tue 02:25:38 PM 41.4630 -77.6210 101° East 512 589 33,000 -375 Level FlightAware ADS-B
Tue 02:26:17 PM 41.4410 -77.4690 101° East 510 587 32,500 -911 Descending FlightAware ADS-B
Tue 02:26:57 PM 41.4230 -77.3470 101° East 512 589 31,800 -1,059 Descending FlightAware ADS-B
Tue 02:27:42 PM 41.4030 -77.2090 101° East 512 589 31,000 -2,606 Descending FlightAware ADS-B
Tue 02:28:36 PM 41.3770 -77.0290 101° East 529 609 27,500 -2,258 Descending FlightAware ADS-B
Tue 02:29:15 PM 41.3610 -76.9230 101° East 529 609 27,500 -349 Level FlightAware ADS-B
Tue 02:30:02 PM 41.3370 -76.7770 102° East 516 594 27,000 -435 Descending FlightAware ADS-B
Tue 02:30:24 PM 41.3153 -76.6893 108° East 509 586 27,000 -1,038 Level FlightAware ADS-B
Tue 02:30:54 PM 41.2917 -76.6012 110° East 505 581 26,100 -1,644 Descending FlightAware ADS-B
Tue 02:31:37 PM 41.2587 -76.4775 110° East 495 570 25,000 -880 Descending FlightAware ADS-B
Tue 02:32:09 PM 41.2354 -76.3897 109° East 482 555 25,000  Level FlightAware ADS-B
Tue 02:32:39 PM 41.2120 -76.3029 110° East 497 572 25,000 -590 Level FlightAware ADS-B
Tue 02:33:10 PM 41.1875 -76.2133 110° East 496 571 24,400 -1,869 Descending FlightAware ADS-B
Tue 02:33:40 PM 41.1641 -76.1279 110° East 491 565 23,100 -2,459 Descending FlightAware ADS-B
Tue 02:34:11 PM 41.1409 -76.0435 110° East 482 555 21,900 -2,361 Descending FlightAware ADS-B
Tue 02:34:41 PM 41.1180 -75.9595 110° East 473 544 20,700 -2,333 Descending FlightAware ADS-B
Tue 02:35:23 PM 41.0873 -75.8480 110° East 463 533 19,100 -2,189 Descending FlightAware ADS-B
Tue 02:35:55 PM 41.0639 -75.7642 110° East 445 512 18,000 -2,676 Descending FlightAware ADS-B
Tue 02:36:37 PM 41.0334 -75.6549 110° East 445 512 15,800 -3,041 Descending FlightAware ADS-B
Tue 02:37:08 PM 41.0121 -75.5777 110° East 432 497 14,300 -2,719 Descending FlightAware ADS-B
Tue 02:37:41 PM 40.9898 -75.4968 110° East 417 480 12,900 -1,667 Descending FlightAware ADS-B
Tue 02:38:02 PM 40.9713 -75.4524 119° Southeast 398 458 12,800  Descending FlightAware ADS-B
Tue 02:38:20 PM 40.9480 -75.4280 142° Southeast 369 425 12,900 -231 Climbing FlightAware ADS-B
Tue 02:38:54 PM 40.9018 -75.3872 146° Southeast 337 388 12,600 -766 Descending FlightAware ADS-B
Tue 02:39:07 PM 40.8872 -75.3701 138° Southeast 330 380 12,300 -1,500 Descending FlightAware ADS-B
Tue 02:39:26 PM 40.8747 -75.3367 116° Southeast 327 376 11,800 -1,543 Descending FlightAware ADS-B
Tue 02:39:42 PM 40.8742 -75.3059 91° East 322 371 11,400 -1,459 Descending FlightAware ADS-B
Tue 02:40:03 PM 40.8800 -75.2660 79° East 313 360 10,900 -1,333 Descending FlightAware ADS-B
Tue 02:40:27 PM 40.8776 -75.2207 94° East 314 361 10,400 -1,350 Descending FlightAware ADS-B
Tue 02:40:43 PM 40.8734 -75.1916 101° East 314 361 10,000 -1,350 Descending FlightAware ADS-B
Tue 02:41:07 PM 40.8664 -75.1476 102° East 307 353 9,500 -1,375 Descending FlightAware ADS-B
Tue 02:41:31 PM 40.8593 -75.1031 102° East 304 350 8,900 -1,529 Descending FlightAware ADS-B
Tue 02:41:58 PM 40.8512 -75.0555 103° East 299 344 8,200 -1,472 Descending FlightAware ADS-B
Tue 02:42:24 PM 40.8429 -75.0087 103° East 295 339 7,600 -1,404 Descending FlightAware ADS-B
Tue 02:42:45 PM 40.8367 -74.9730 103° East 294 338 7,100 -1,167 Descending FlightAware ADS-B
Tue 02:43:00 PM 40.8319 -74.9457 103° East 285 328 6,900 -364 Descending FlightAware ADS-B
Tue 02:43:18 PM 40.8270 -74.9167 103° East 277 319 6,900  Level FlightAware ADS-B
Tue 02:43:32 PM 40.8225 -74.8934 104° East 274 315 6,900  Level FlightAware ADS-B
Tue 02:43:40 PM 40.8220 -74.8802 93° East 269 310 6,900  Level FlightAware ADS-B
Tue 02:43:52 PM 40.8251 -74.8618 77° East 262 302 6,900  Level FlightAware ADS-B
Tue 02:44:14 PM 40.8329 -74.8297 72° East 259 298 6,900  Level FlightAware ADS-B
Tue 02:44:34 PM 40.8396 -74.8029 72° East 238 274 6,900  Level FlightAware ADS-B
Tue 02:44:55 PM 40.8467 -74.7746 72° East 231 266 6,900 -419 Level FlightAware ADS-B
Tue 02:45:17 PM 40.8535 -74.7454 73° East 228 262 6,600 -800 Descending FlightAware ADS-B
Tue 02:45:55 PM 40.8640 -74.6950 75° East 226 260 6,100 -778 Descending FlightAware ADS-B
Tue 02:46:11 PM 40.8687 -74.6736 74° East 228 262 5,900 -308 Descending FlightAware ADS-B
Tue 02:46:34 PM 40.8755 -74.6422 74° East 227 261 5,900  Level FlightAware ADS-B
Tue 02:46:50 PM 40.8804 -74.6208 73° East 229 264 5,900  Level FlightAware ADS-B
Tue 02:47:06 PM 40.8855 -74.5994 72° East 233 268 5,900  Level FlightAware ADS-B
Tue 02:47:26 PM 40.8918 -74.5720 73° East 234 269 5,900  Level FlightAware ADS-B
Tue 02:47:48 PM 40.8920 -74.5415 89° East 245 282 5,900  Level FlightAware ADS-B
Tue 02:48:03 PM 40.8809 -74.5230 128° Southeast 245 282 5,900  Level FlightAware ADS-B
Tue 02:48:19 PM 40.8642 -74.5155 161° South 252 290 5,900  Level FlightAware ADS-B
Tue 02:48:25 PM 40.8574 -74.5160 183° South 250 288 5,900  Level FlightAware ADS-B
Tue 02:48:34 PM 40.8474 -74.5187 192° South 249 287 5,900  Level FlightAware ADS-B
Tue 02:49:09 PM 40.8080 -74.5320 194° South 247 284 5,900  Level FlightAware ADS-B
Tue 02:49:21 PM 40.7938 -74.5364 193° South 249 287 5,900  Level FlightAware ADS-B
Tue 02:49:41 PM 40.7715 -74.5436 194° South 249 287 5,900  Level FlightAware ADS-B
Tue 02:49:58 PM 40.7522 -74.5504 195° South 248 285 5,900  Level FlightAware ADS-B
Tue 02:50:17 PM 40.7314 -74.5576 195° South 248 285 5,900  Level FlightAware ADS-B
Tue 02:50:43 PM 40.7031 -74.5676 195° South 253 291 5,900  Level FlightAware ADS-B
Tue 02:51:05 PM 40.6785 -74.5760 195° South 251 289 5,900  Level FlightAware ADS-B
Tue 02:51:22 PM 40.6593 -74.5826 195° South 254 292 5,900  Level FlightAware ADS-B
Tue 02:51:39 PM 40.6397 -74.5893 195° South 255 293 5,900  Level FlightAware ADS-B
Tue 02:52:09 PM 40.6050 -74.5927 184° South 252 290 5,900  Level FlightAware ADS-B
Tue 02:52:16 PM 40.5977 -74.5891 159° South 251 289 5,900  Level FlightAware ADS-B
Tue 02:52:33 PM 40.5795 -74.5797 159° South 257 296 5,900  Level FlightAware ADS-B
Tue 02:52:50 PM 40.5604 -74.5693 158° South 252 290 5,900  Level FlightAware ADS-B
Tue 02:53:01 PM 40.5491 -74.5632 158° South 248 285 5,900  Level FlightAware ADS-B
Tue 02:53:16 PM 40.5326 -74.5543 158° South 248 285 5,900  Level FlightAware ADS-B
Tue 02:53:21 PM 40.5273 -74.5508 153° Southeast 251 289 5,900  Level FlightAware ADS-B
Tue 02:53:24 PM 40.5244 -74.5483 147° Southeast 251 289 5,900 -750 Level FlightAware ADS-B
Tue 02:53:29 PM 40.5207 -74.5443 141° Southeast 250 288 5,800 -667 Descending FlightAware ADS-B
Tue 02:53:33 PM 40.5170 -74.5394 135° Southeast 249 287 5,800 -1,143 Level FlightAware ADS-B
Tue 02:53:50 PM 40.5049 -74.5203 130° Southeast 245 282 5,400 -1,286 Descending FlightAware ADS-B
Tue 02:54:01 PM 40.4971 -74.5076 129° Southeast 245 282 5,200 -1,364 Descending FlightAware ADS-B
Tue 02:54:12 PM 40.4891 -74.4945 129° Southeast 243 280 4,900 -1,385 Descending FlightAware ADS-B
Tue 02:54:27 PM 40.4785 -74.4769 128° Southeast 241 277 4,600 -1,125 Descending FlightAware ADS-B
Tue 02:54:44 PM 40.4675 -74.4585 128° Southeast 234 269 4,300 -923 Descending FlightAware ADS-B
Tue 02:55:06 PM 40.4530 -74.4339 128° Southeast 222 255 4,000 -600 Descending FlightAware ADS-B
Tue 02:55:24 PM 40.4424 -74.4156 127° Southeast 204 235 3,900 -214 Descending FlightAware ADS-B
Tue 02:55:34 PM 40.4383 -74.4052 117° Southeast 194 223 3,900 -375 Level FlightAware ADS-B
Tue 02:55:40 PM 40.4373 -74.3984 101° East 191 220 3,800 -1,200 Descending FlightAware ADS-B
Tue 02:55:44 PM 40.4374 -74.3937 88° East 186 214 3,700 -1,231 Descending FlightAware ADS-B
Tue 02:56:19 PM 40.4500 -74.3600 64° Northeast 188 216 3,000 -762 Descending FlightAware ADS-B
Tue 02:56:47 PM 40.4620 -74.3330 60° Northeast 183 211 2,900 -136 Descending FlightAware ADS-B
Tue 02:57:03 PM 40.4690 -74.3170 60° Northeast 185 213 2,900  Level FlightAware ADS-B
Tue 02:57:15 PM 40.4750 -74.3070 52° Northeast 183 211 2,900  Level FlightAware ADS-B
Tue 02:57:41 PM 40.4940 -74.2900 34° Northeast 179 206 2,900  Level FlightAware ADS-B
Tue 02:57:59 PM 40.5070 -74.2810 28° Northeast 178 205 2,900  Level FlightAware ADS-B
Tue 02:58:32 PM 40.5316 -74.2668 24° Northeast 176 203 2,900  Level FlightAware ADS-B
Tue 02:58:47 PM 40.5429 -74.2595 26° Northeast 181 208 2,900 -375 Level FlightAware ADS-B
Tue 02:59:04 PM 40.5558 -74.2513 26° Northeast 182 209 2,700 -980 Descending FlightAware ADS-B
Tue 02:59:36 PM 40.5800 -74.2358 26° Northeast 186 214 2,100 -1,029 Descending FlightAware ADS-B
Tue 02:59:39 PM 40.5827 -74.2340 27° Northeast 186 214 2,100 -828 Level FlightAware ADS-B
Tue 03:00:05 PM 40.6027 -74.2209 26° Northeast 188 216 1,700 -667 Descending FlightAware ADS-B
Tue 03:00:06 PM 40.6000 -74.2167 119° Southeast 186 214 1,800 -1,029 Climbing New York TRACON
Tue 03:00:40 PM 40.6276 -74.2055 25° Northeast 188 216 1,100 -1,200 Descending FlightAware ADS-B
Tue 03:00:51 PM 40.6349 -74.2013 24° Northeast 154 177 900 -462 Descending FlightAware ADS-B
Tue 03:01:06 PM 40.6500 -74.2000 14° North 156 180 900 -800 Level New York TRACON
Tue 03:01:21 PM 40.6542 -74.1890 26° Northeast 154 177 500 -1,304 Descending FlightAware ADS-B
Tue 03:01:29 PM 40.6601 -74.1852 26° Northeast 162 186 400 -750 Descending FlightAware ADS-B
Tue 03:03:00 PM 40.6833 -74.1667 119° Southeast  Level FlightAware Approximate
Tue 03:06:00 PM 40.6833 -74.1667 119° Southeast  Level FlightAware Approximate
Tue 03:10:00 PM 40.6925 -74.1687 119° Southeast  Level Estimated
Tue 03:11:00 PM 40.6925 -74.1687 119° Southeast  Level Estimated
Tue 03:12:00 PM 40.6925 -74.1687 119° Southeast  Level Estimated

Login

Don't have an account? Register now (free) for customized features, flight alerts, and more!